Time;durP1;ratioP1;P1;durP2;ratioP2;P2;SDS_P1;SDS_P2;PMS_P1;PMS_P2;Temp;Humidity;BMP_temperature;BMP_pressure;BME280_temperature;BME280_humidity;BME280_pressure;Samples;Min_cycle;Max_cycle;Signal;HPM_P1;HPM_P2
2022/09/29 00:00:18;;;;;;;5.82;1.52;;;;;;;15.42;82.42;93766.50;5134208;27;20208;-73
2022/09/29 00:02:44;;;;;;;4.30;1.70;;;;;;;15.45;82.64;93771.19;5133943;27;20726;-73
2022/09/29 00:05:11;;;;;;;3.90;1.95;;;;;;;15.50;83.24;93783.69;5133716;27;20201;-74
2022/09/29 00:07:38;;;;;;;2.97;1.90;;;;;;;15.46;83.36;93777.44;5133581;27;20246;-73
2022/09/29 00:10:05;;;;;;;3.40;2.03;;;;;;;15.42;83.37;93761.03;5133805;27;20278;-74
2022/09/29 00:12:33;;;;;;;4.22;2.15;;;;;;;15.43;83.22;93764.56;5133887;27;20292;-74
2022/09/29 00:15:00;;;;;;;3.58;1.83;;;;;;;15.49;83.33;93772.00;5133021;27;20250;-74
2022/09/29 00:17:27;;;;;;;7.30;2.38;;;;;;;15.56;82.28;93755.72;5133413;27;20205;-74
2022/09/29 00:19:54;;;;;;;7.38;2.40;;;;;;;15.69;81.83;93774.50;5132787;27;20732;-74
2022/09/29 00:22:21;;;;;;;6.30;2.17;;;;;;;15.59;82.73;93773.25;5132713;27;20257;-75
2022/09/29 00:24:48;;;;;;;2.92;1.90;;;;;;;15.53;82.58;93767.34;5132975;27;20253;-72
2022/09/29 00:27:15;;;;;;;5.63;1.42;;;;;;;15.53;82.40;93750.19;5133149;27;20189;-73
2022/09/29 00:29:43;;;;;;;3.65;2.20;;;;;;;15.55;82.33;93748.69;5133212;27;20200;-75
2022/09/29 00:32:11;;;;;;;2.58;1.77;;;;;;;15.46;82.88;93767.28;5132827;27;20703;-75
2022/09/29 00:34:37;;;;;;;3.75;2.25;;;;;;;15.48;83.19;93764.97;5133307;27;20297;-74
2022/09/29 00:37:05;;;;;;;3.58;1.77;;;;;;;15.46;82.82;93756.38;5132509;27;20201;-74
2022/09/29 00:39:32;;;;;;;6.82;1.63;;;;;;;15.33;83.61;93751.59;5133377;27;20196;-74
2022/09/29 00:41:59;;;;;;;3.42;2.10;;;;;;;15.32;83.82;93760.94;5133229;27;20257;-74
2022/09/29 00:45:05;;;;;;;4.55;1.67;;;;;;;15.32;83.86;93758.22;5131730;27;20197;-74
2022/09/29 00:47:36;;;;;;;1.90;1.30;;;;;;;15.14;83.99;93752.66;5112806;28;20257;-74
2022/09/29 00:50:10;;;;;;;2.70;2.10;;;;;;;15.12;84.63;93753.03;5129564;27;20264;-74
2022/09/29 00:52:40;;;;;;;3.88;2.03;;;;;;;15.09;85.05;93774.81;5133011;27;20213;-74
2022/09/29 00:55:13;;;;;;;3.55;1.65;;;;;;;15.04;85.23;93761.50;5132808;27;20215;-74
2022/09/29 00:57:46;;;;;;;4.45;1.55;;;;;;;14.88;85.84;93743.47;5133196;27;20337;-74
2022/09/29 01:00:15;;;;;;;4.88;1.75;;;;;;;14.72;87.42;93751.09;5118798;27;20193;-74
2022/09/29 01:02:46;;;;;;;1.60;1.45;;;;;;;14.77;87.01;93758.94;5133310;27;20205;-75
2022/09/29 01:05:17;;;;;;;8.48;1.70;;;;;;;14.79;86.78;93767.50;5133031;27;20220;-74
2022/09/29 01:07:45;;;;;;;2.65;1.50;;;;;;;14.76;86.50;93772.94;5131698;27;20551;-74
2022/09/29 01:10:15;;;;;;;1.95;1.50;;;;;;;14.72;86.60;93759.28;5132474;27;20283;-74
2022/09/29 01:12:43;;;;;;;2.05;1.60;;;;;;;14.62;87.72;93757.25;5132526;27;20586;-74
2022/09/29 01:15:11;;;;;;;3.15;1.67;;;;;;;14.42;88.63;93759.34;5132511;27;20616;-74
2022/09/29 01:17:39;;;;;;;2.05;1.63;;;;;;;14.33;88.71;93756.13;5132538;27;20603;-74
2022/09/29 01:20:12;;;;;;;3.78;2.03;;;;;;;14.32;89.43;93759.22;5131979;27;20228;-74
2022/09/29 01:23:08;;;;;;;4.22;1.77;;;;;;;14.20;89.49;93752.06;5131905;27;20201;-74
2022/09/29 01:25:59;;;;;;;3.63;2.00;;;;;;;13.93;90.99;93732.31;5131776;27;20201;-74
2022/09/29 01:28:47;;;;;;;2.65;2.00;;;;;;;14.00;91.36;93748.72;5131855;27;20208;-74
2022/09/29 01:31:24;;;;;;;2.95;1.88;;;;;;;14.00;91.23;93754.16;5121105;27;20257;-73
2022/09/29 01:34:00;;;;;;;4.65;1.73;;;;;;;13.98;91.91;93759.19;5132441;27;20228;-74
2022/09/29 01:36:38;;;;;;;7.28;1.70;;;;;;;13.83;92.94;93760.16;5132383;27;20238;-74
2022/09/29 01:39:14;;;;;;;3.13;1.90;;;;;;;13.78;92.89;93768.66;5131574;27;20237;-74
2022/09/29 01:41:46;;;;;;;2.67;1.50;;;;;;;13.75;93.26;93780.28;5131574;27;20189;-75
2022/09/29 01:44:20;;;;;;;3.42;1.95;;;;;;;13.75;93.43;93786.50;5131569;27;20189;-73
2022/09/29 01:46:53;;;;;;;4.75;2.10;;;;;;;13.78;93.59;93771.38;5132115;27;20261;-74
2022/09/29 01:49:23;;;;;;;3.15;1.65;;;;;;;13.70;93.72;93777.88;5131538;27;20237;-73
2022/09/29 01:51:54;;;;;;;2.22;1.80;;;;;;;13.55;93.92;93778.81;5131677;27;20200;-75
2022/09/29 01:54:25;;;;;;;2.05;1.80;;;;;;;13.61;93.89;93793.69;5131646;27;20189;-74
2022/09/29 01:56:59;;;;;;;4.50;1.50;;;;;;;13.62;94.33;93778.94;5131778;27;20540;-73
2022/09/29 01:59:33;;;;;;;2.58;1.80;;;;;;;13.48;94.74;93777.56;5131549;27;20232;-74
2022/09/29 02:02:08;;;;;;;3.25;2.03;;;;;;;13.62;94.95;93781.66;5131522;27;20269;-74
2022/09/29 02:04:41;;;;;;;2.03;1.50;;;;;;;13.64;94.87;93784.78;5131824;27;20692;-73
2022/09/29 02:07:15;;;;;;;10.20;2.35;;;;;;;13.69;94.19;93787.19;5134554;27;20193;-73
2022/09/29 02:09:45;;;;;;;3.42;1.85;;;;;;;13.64;94.98;93790.25;5137146;27;20215;-74
2022/09/29 02:12:16;;;;;;;3.78;2.10;;;;;;;13.59;94.94;93783.16;5132800;27;20578;-74
2022/09/29 02:14:47;;;;;;;5.05;1.73;;;;;;;13.70;94.20;93784.09;5133186;27;20562;-73
2022/09/29 02:17:19;;;;;;;6.20;2.05;;;;;;;13.74;94.24;93795.03;5131444;27;20200;-74
2022/09/29 02:19:48;;;;;;;7.35;2.17;;;;;;;13.80;93.68;93779.97;5118458;27;20271;-73
2022/09/29 02:22:16;;;;;;;4.25;2.00;;;;;;;13.92;92.46;93782.47;5130890;27;20193;-74
2022/09/29 02:24:43;;;;;;;2.92;2.00;;;;;;;13.86;92.81;93802.97;5131147;27;20617;-74
2022/09/29 02:27:10;;;;;;;2.83;1.63;;;;;;;13.82;93.39;93796.69;5130912;27;20659;-74
2022/09/29 02:29:37;;;;;;;2.08;1.67;;;;;;;13.74;93.48;93795.81;5131292;27;20197;-74
2022/09/29 02:32:05;;;;;;;3.75;1.77;;;;;;;13.75;94.43;93807.50;5130937;27;20328;-74
2022/09/29 02:34:40;;;;;;;2.15;1.90;;;;;;;13.82;94.84;93804.88;5131214;27;20212;-74
2022/09/29 02:37:22;;;;;;;4.03;1.88;;;;;;;13.79;94.42;93797.44;5131353;27;20201;-74
2022/09/29 02:40:00;;;;;;;3.47;1.85;;;;;;;13.91;93.02;93789.06;5131021;27;20196;-74
2022/09/29 02:42:33;;;;;;;4.72;1.80;;;;;;;13.93;92.88;93797.66;5118151;27;20218;-75
2022/09/29 02:45:14;;;;;;;4.43;1.95;;;;;;;13.90;93.12;93809.28;5131323;27;20196;-74
2022/09/29 02:47:58;;;;;;;6.75;1.92;;;;;;;13.79;93.39;93783.84;5130738;27;20242;-74
2022/09/29 02:50:55;;;;;;;3.30;1.95;;;;;;;13.84;93.13;93797.13;5130353;27;20292;-73
2022/09/29 02:53:37;;;;;;;3.10;2.00;;;;;;;13.80;93.85;93813.41;5128981;27;20312;-73
2022/09/29 02:56:13;;;;;;;4.57;2.40;;;;;;;13.76;93.95;93806.34;5131041;27;20250;-73
2022/09/29 02:58:50;;;;;;;2.08;1.83;;;;;;;13.67;93.92;93793.00;5118621;27;20188;-72
2022/09/29 03:01:17;;;;;;;3.92;1.65;;;;;;;13.77;94.14;93805.19;5130588;27;20184;-74
2022/09/29 03:03:44;;;;;;;4.35;1.90;;;;;;;13.83;93.68;93792.81;5130479;27;20197;-74
2022/09/29 03:06:14;;;;;;;2.42;1.92;;;;;;;13.85;93.75;93790.53;5130841;27;20201;-73
2022/09/29 03:08:41;;;;;;;6.68;2.20;;;;;;;13.97;92.48;93765.00;5130058;27;20231;-75
2022/09/29 03:11:08;;;;;;;3.35;1.92;;;;;;;14.08;91.63;93742.19;5130152;27;20655;-74
2022/09/29 03:13:34;;;;;;;2.33;1.25;;;;;;;14.17;90.39;93742.72;5129961;27;20715;-73
2022/09/29 03:16:01;;;;;;;1.92;1.42;;;;;;;14.11;90.50;93760.53;5130466;28;20197;-73
2022/09/29 03:18:28;;;;;;;1.38;1.15;;;;;;;14.02;90.69;93757.31;5130459;28;20667;-75
2022/09/29 03:20:55;;;;;;;2.78;1.88;;;;;;;13.96;90.67;93766.94;5130373;27;20201;-73
2022/09/29 03:23:24;;;;;;;2.28;1.50;;;;;;;13.92;90.78;93770.78;5130678;27;20692;-74
2022/09/29 03:25:50;;;;;;;6.78;1.67;;;;;;;13.81;91.38;93784.25;5130477;28;20205;-74
2022/09/29 03:28:17;;;;;;;1.70;1.48;;;;;;;13.86;91.13;93781.22;5130170;27;20201;-73
2022/09/29 03:30:44;;;;;;;2.63;1.60;;;;;;;13.96;90.25;93785.22;5130240;28;20196;-74
2022/09/29 03:33:11;;;;;;;6.97;2.28;;;;;;;13.93;89.95;93786.75;5130204;27;20229;-74
2022/09/29 03:35:38;;;;;;;9.60;2.30;;;;;;;13.86;89.88;93792.09;5130036;27;20283;-74
2022/09/29 03:38:06;;;;;;;3.50;1.58;;;;;;;13.97;89.78;93771.22;5130267;27;20197;-73
2022/09/29 03:40:34;;;;;;;2.60;1.77;;;;;;;14.19;88.60;93770.38;5130462;28;20823;-74
2022/09/29 03:43:00;;;;;;;3.33;1.75;;;;;;;14.31;87.91;93779.44;5129608;28;20741;-74
2022/09/29 03:45:27;;;;;;;2.60;1.70;;;;;;;14.21;87.77;93787.09;5130162;27;20610;-73
2022/09/29 03:47:54;;;;;;;2.40;1.80;;;;;;;14.14;88.27;93811.53;5130342;27;20256;-74
2022/09/29 03:50:21;;;;;;;4.53;2.00;;;;;;;13.90;90.42;93822.88;5129733;28;20428;-74
2022/09/29 03:52:47;;;;;;;3.15;1.90;;;;;;;13.71;91.84;93817.53;5129959;28;20232;-73
2022/09/29 03:55:14;;;;;;;3.58;1.80;;;;;;;13.69;92.29;93803.50;5130447;28;20208;-73
2022/09/29 03:57:43;;;;;;;5.22;2.00;;;;;;;13.68;92.70;93796.50;5130179;28;20201;-74
2022/09/29 04:00:11;;;;;;;2.83;1.90;;;;;;;13.63;92.84;93794.09;5129722;28;20205;-71
2022/09/29 04:02:38;;;;;;;2.35;1.85;;;;;;;13.60;93.05;93800.28;5129885;28;20230;-71
2022/09/29 04:05:05;;;;;;;3.20;2.38;;;;;;;13.49;94.24;93798.19;5129904;28;20278;-73
2022/09/29 04:07:32;;;;;;;2.38;1.75;;;;;;;13.50;93.67;93805.22;5129648;27;20209;-74
2022/09/29 04:09:59;;;;;;;3.42;2.28;;;;;;;13.39;95.33;93820.56;5129542;27;20238;-74
2022/09/29 04:12:26;;;;;;;4.82;2.20;;;;;;;13.36;95.75;93813.16;5129094;27;20660;-71
2022/09/29 04:14:54;;;;;;;6.63;2.60;;;;;;;13.25;95.94;93805.97;5128675;28;20201;-70
2022/09/29 04:17:21;;;;;;;5.22;2.70;;;;;;;13.27;95.94;93809.88;5129924;28;20624;-74
2022/09/29 04:19:48;;;;;;;5.00;1.90;;;;;;;13.06;96.83;93798.63;5132017;27;20228;-73
2022/09/29 04:22:16;;;;;;;4.20;2.25;;;;;;;13.08;97.24;93801.78;5133755;27;20253;-74
2022/09/29 04:24:43;;;;;;;2.97;2.05;;;;;;;13.12;96.98;93797.16;5133685;27;20359;-73
2022/09/29 04:27:10;;;;;;;3.63;2.22;;;;;;;13.02;98.09;93814.09;5133649;27;20660;-73
2022/09/29 04:29:37;;;;;;;4.72;2.45;;;;;;;13.03;98.15;93810.22;5133479;27;20204;-74
2022/09/29 04:32:06;;;;;;;4.43;2.42;;;;;;;12.97;97.89;93793.44;5133475;27;20301;-73
2022/09/29 04:34:33;;;;;;;4.10;2.65;;;;;;;13.07;97.30;93802.91;5133310;27;20320;-74
2022/09/29 04:37:00;;;;;;;12.20;2.75;;;;;;;13.06;98.04;93814.94;5133286;27;20250;-73
2022/09/29 04:39:27;;;;;;;1.52;1.40;;;;;;;13.28;96.69;93808.72;5133317;27;20257;-73
2022/09/29 04:41:54;;;;;;;7.82;2.38;;;;;;;13.29;96.43;93793.97;5133399;27;20208;-75
2022/09/29 04:44:23;;;;;;;3.28;2.42;;;;;;;13.36;95.85;93794.09;5132664;27;20903;-73
2022/09/29 04:46:50;;;;;;;6.68;4.70;;;;;;;13.40;96.04;93803.09;5132936;27;20343;-72
2022/09/29 04:49:18;;;;;;;4.10;3.05;;;;;;;14.03;94.33;93794.28;5132782;27;20510;-74
2022/09/29 04:51:45;;;;;;;7.57;3.40;;;;;;;14.27;91.76;93797.66;5133039;27;20219;-74
2022/09/29 04:54:12;;;;;;;3.20;2.25;;;;;;;14.13;91.26;93799.06;5132237;27;20257;-73
2022/09/29 04:56:39;;;;;;;6.78;3.45;;;;;;;14.28;91.66;93796.53;5132485;27;20609;-74
2022/09/29 04:59:06;;;;;;;8.98;2.78;;;;;;;15.34;87.61;93797.63;5132109;27;20324;-73
2022/09/29 05:01:33;;;;;;;13.05;2.80;;;;;;;17.02;80.90;93794.59;5132004;27;20197;-73
2022/09/29 05:04:00;;;;;;;2.97;2.42;;;;;;;17.73;74.87;93768.03;5132247;27;20589;-73
2022/09/29 05:06:28;;;;;;;9.20;3.00;;;;;;;18.49;71.57;93761.13;5131576;27;20716;-74
2022/09/29 05:08:55;;;;;;;3.45;2.33;;;;;;;18.80;70.44;93759.47;5131689;27;20275;-74
2022/09/29 05:11:22;;;;;;;5.35;2.70;;;;;;;19.12;69.01;93762.00;5131905;27;20537;-74
2022/09/29 05:13:50;;;;;;;2.88;2.05;;;;;;;18.94;69.37;93769.56;5131482;27;20633;-73
2022/09/29 05:16:19;;;;;;;6.35;2.53;;;;;;;19.36;67.23;93760.25;5127169;27;20239;-73
2022/09/29 05:18:46;;;;;;;6.80;2.50;;;;;;;18.96;67.97;93748.78;5129601;27;20273;-72
2022/09/29 05:21:12;;;;;;;6.93;2.67;;;;;;;18.93;68.52;93760.56;5132396;27;20249;-72
2022/09/29 05:23:41;;;;;;;13.70;3.00;;;;;;;19.77;66.79;93769.34;5132661;27;20196;-73
2022/09/29 05:26:09;;;;;;;2.50;2.30;;;;;;;21.31;61.81;93766.34;5132790;27;20292;-73
2022/09/29 05:28:37;;;;;;;9.57;2.80;;;;;;;22.04;59.36;93753.72;5132581;27;20193;-73
2022/09/29 05:31:05;;;;;;;7.07;2.47;;;;;;;23.17;55.90;93740.41;5132059;27;20200;-73
2022/09/29 05:33:32;;;;;;;8.05;3.00;;;;;;;23.24;54.66;93751.28;5132109;27;20232;-74
2022/09/29 05:35:59;;;;;;;7.05;2.70;;;;;;;22.98;54.60;93749.50;5132362;27;20208;-73
2022/09/29 05:38:27;;;;;;;5.88;2.92;;;;;;;23.66;53.65;93754.25;5132336;27;20201;-73
2022/09/29 05:40:55;;;;;;;6.00;2.45;;;;;;;22.37;56.02;93765.75;5131836;27;20205;-74
2022/09/29 05:43:22;;;;;;;6.93;2.42;;;;;;;21.52;58.92;93779.78;5130754;27;20281;-73
2022/09/29 05:45:49;;;;;;;5.65;3.05;;;;;;;21.10;59.53;93767.41;5130394;27;20276;-73
2022/09/29 05:48:16;;;;;;;4.53;2.50;;;;;;;21.83;58.18;93783.22;5130817;27;20201;-73
2022/09/29 05:50:43;;;;;;;6.43;2.22;;;;;;;21.82;55.70;93791.91;5131804;27;20240;-74
2022/09/29 05:53:11;;;;;;;5.70;2.70;;;;;;;22.23;55.46;93794.38;5131964;27;20293;-73
2022/09/29 05:55:38;;;;;;;7.03;2.35;;;;;;;21.10;57.49;93781.19;5131823;27;20201;-74
2022/09/29 05:58:07;;;;;;;3.42;2.17;;;;;;;20.48;59.29;93790.66;5132350;27;20245;-73
2022/09/29 06:00:34;;;;;;;3.10;2.22;;;;;;;20.44;59.65;93795.41;5132082;27;20832;-74
2022/09/29 06:03:02;;;;;;;3.45;2.05;;;;;;;21.47;57.13;93793.25;5132103;27;20657;-72
2022/09/29 06:05:29;;;;;;;4.72;2.50;;;;;;;22.21;54.90;93796.78;5131816;27;20713;-74
2022/09/29 06:07:56;;;;;;;5.35;2.00;;;;;;;22.72;53.83;93802.91;5131617;27;20209;-74
2022/09/29 06:10:23;;;;;;;8.95;2.50;;;;;;;23.19;51.76;93809.06;5131842;27;20732;-73
2022/09/29 06:12:49;;;;;;;5.85;2.08;;;;;;;22.52;53.27;93822.22;5131916;27;20273;-73
2022/09/29 06:15:18;;;;;;;4.50;1.85;;;;;;;21.46;56.51;93810.97;5131890;27;20274;-73
2022/09/29 06:17:45;;;;;;;3.90;2.40;;;;;;;21.36;57.74;93809.16;5131225;27;20197;-73
2022/09/29 06:20:12;;;;;;;5.97;2.10;;;;;;;21.39;56.34;93805.59;5130834;27;20200;-74
2022/09/29 06:22:39;;;;;;;3.17;2.10;;;;;;;21.63;55.64;93802.44;5131558;27;20201;-74
2022/09/29 06:25:06;;;;;;;5.40;2.38;;;;;;;22.58;54.66;93810.25;5131762;27;20234;-74
2022/09/29 06:27:34;;;;;;;4.50;2.38;;;;;;;24.42;49.66;93804.53;5131358;27;20205;-74
2022/09/29 06:30:00;;;;;;;5.57;2.30;;;;;;;25.03;48.43;93801.66;5131149;27;20297;-74
2022/09/29 06:32:28;;;;;;;3.17;2.13;;;;;;;24.62;48.43;93791.31;5131166;27;20770;-73
2022/09/29 06:37:45;;;;;;;5.15;2.20;;;;;;;25.67;45.75;93802.53;5119199;27;20189;-74
2022/09/29 06:40:12;;;;;;;4.90;2.03;;;;;;;26.97;43.17;93795.78;5130620;27;20201;-73
2022/09/29 06:42:39;;;;;;;4.63;2.13;;;;;;;27.35;43.23;93803.88;5130176;27;20280;-73
2022/09/29 06:45:08;;;;;;;5.25;2.20;;;;;;;25.03;45.94;93798.13;5131442;27;20261;-73
2022/09/29 06:47:36;;;;;;;3.15;1.90;;;;;;;23.50;49.64;93817.84;5131348;27;20269;-74
2022/09/29 06:50:02;;;;;;;3.05;2.05;;;;;;;22.96;51.97;93818.97;5130339;27;20264;-74
2022/09/29 06:52:30;;;;;;;3.00;2.20;;;;;;;22.09;53.77;93816.69;5131130;27;20599;-73
2022/09/29 06:54:57;;;;;;;3.35;1.90;;;;;;;22.13;53.38;93828.47;5131014;27;20224;-73
2022/09/29 06:57:23;;;;;;;2.53;1.90;;;;;;;20.94;58.51;93823.09;5131374;27;20250;-73
2022/09/29 06:59:50;;;;;;;4.32;2.47;;;;;;;21.53;56.28;93832.94;5130924;27;20628;-74
2022/09/29 07:02:17;;;;;;;4.88;2.42;;;;;;;21.87;55.42;93838.31;5130975;27;20192;-73
2022/09/29 07:04:47;;;;;;;7.47;2.53;;;;;;;21.60;55.88;93846.59;5131349;27;20212;-73
2022/09/29 07:07:14;;;;;;;5.80;2.35;;;;;;;21.35;56.31;93851.69;5131335;27;20208;-74
2022/09/29 07:09:42;;;;;;;4.15;2.00;;;;;;;21.48;55.51;93855.44;5130611;27;20262;-74
2022/09/29 07:12:10;;;;;;;3.83;2.20;;;;;;;20.09;59.55;93845.25;5130611;27;20318;-73
2022/09/29 07:14:37;;;;;;;6.13;2.78;;;;;;;20.05;60.26;93852.75;5131062;27;20235;-73
2022/09/29 07:17:04;;;;;;;9.55;2.70;;;;;;;20.43;59.65;93854.38;5131197;27;20246;-73
2022/09/29 07:19:31;;;;;;;4.53;2.60;;;;;;;20.49;60.21;93844.47;5130997;28;20635;-73
2022/09/29 07:21:59;;;;;;;7.43;2.63;;;;;;;21.05;58.18;93828.44;5130830;27;20292;-73
2022/09/29 07:24:26;;;;;;;3.53;2.20;;;;;;;21.55;56.62;93838.81;5130655;28;20747;-73
2022/09/29 07:26:53;;;;;;;7.70;2.60;;;;;;;20.99;57.31;93841.13;5130705;28;20655;-73
2022/09/29 07:29:20;;;;;;;5.93;2.55;;;;;;;20.49;59.67;93836.22;5117583;28;20201;-73
2022/09/29 07:31:50;;;;;;;7.18;2.95;;;;;;;20.65;58.82;93829.34;5130555;27;20200;-75
2022/09/29 07:34:17;;;;;;;5.65;2.55;;;;;;;20.86;58.33;93838.16;5130671;27;20726;-73
2022/09/29 07:36:44;;;;;;;16.35;3.25;;;;;;;21.33;58.43;93837.56;5130903;28;20205;-74
2022/09/29 07:39:12;;;;;;;7.28;2.80;;;;;;;21.15;58.02;93843.28;5130759;27;20738;-74
2022/09/29 07:41:39;;;;;;;3.75;2.50;;;;;;;20.87;59.45;93836.97;5129937;28;20757;-74
2022/09/29 07:44:07;;;;;;;2.60;2.00;;;;;;;20.40;58.95;93849.66;5130909;27;20196;-74
2022/09/29 07:46:34;;;;;;;10.30;2.55;;;;;;;20.70;58.68;93832.44;5130562;27;20224;-74
2022/09/29 07:49:00;;;;;;;3.70;1.95;;;;;;;20.95;57.58;93848.66;5130130;28;20783;-74
2022/09/29 07:51:27;;;;;;;6.78;2.20;;;;;;;21.24;57.34;93840.81;5130410;28;20250;-74
2022/09/29 07:53:54;;;;;;;6.28;2.17;;;;;;;20.76;58.23;93849.28;5130887;27;20221;-74
2022/09/29 07:56:23;;;;;;;6.38;2.30;;;;;;;20.28;59.21;93857.63;5134339;27;20636;-74
2022/09/29 07:58:50;;;;;;;3.67;2.00;;;;;;;20.17;60.11;93866.00;5134379;27;20218;-72
2022/09/29 08:01:19;;;;;;;7.50;2.05;;;;;;;19.85;60.85;93864.28;5134082;27;20250;-72
2022/09/29 08:03:50;;;;;;;4.28;2.28;;;;;;;19.67;61.37;93863.66;5133708;27;20782;-73
2022/09/29 08:06:18;;;;;;;6.82;2.47;;;;;;;19.87;62.46;93864.66;5133701;27;20189;-73
2022/09/29 08:08:45;;;;;;;4.35;1.80;;;;;;;20.41;59.43;93877.97;5134123;27;20679;-73
2022/09/29 08:11:15;;;;;;;3.05;2.00;;;;;;;20.21;60.40;93877.75;5133519;27;20225;-72
2022/09/29 08:13:44;;;;;;;4.85;2.30;;;;;;;20.63;59.65;93875.78;5134176;27;20212;-72
2022/09/29 08:16:13;;;;;;;5.28;2.35;;;;;;;20.46;59.12;93881.06;5129866;27;20197;-72
2022/09/29 08:18:40;;;;;;;5.38;2.13;;;;;;;20.77;59.67;93879.16;5134166;27;20600;-73
2022/09/29 08:21:08;;;;;;;4.72;2.40;;;;;;;20.95;58.91;93878.94;5133870;27;20253;-73
2022/09/29 08:23:36;;;;;;;5.90;2.10;;;;;;;20.30;60.33;93878.03;5133036;27;20257;-74
2022/09/29 08:26:05;;;;;;;3.97;2.08;;;;;;;20.16;61.17;93878.19;5133146;27;20288;-71
2022/09/29 08:28:34;;;;;;;4.57;2.20;;;;;;;20.06;62.15;93885.34;5133942;27;20226;-73
2022/09/29 08:31:06;;;;;;;4.10;2.28;;;;;;;19.76;62.29;93883.22;5132342;27;20204;-73
2022/09/29 08:33:34;;;;;;;4.45;2.25;;;;;;;19.98;62.12;93878.31;5132499;27;20269;-73
2022/09/29 08:36:02;;;;;;;4.55;2.08;;;;;;;19.99;61.50;93884.59;5131582;27;20305;-73
2022/09/29 08:38:29;;;;;;;5.60;2.38;;;;;;;19.97;61.62;93886.97;5132351;27;20193;-73
2022/09/29 08:40:57;;;;;;;4.57;2.30;;;;;;;19.83;62.80;93888.66;5132579;27;20200;-74
2022/09/29 08:43:30;;;;;;;4.03;2.45;;;;;;;20.21;61.61;93888.75;5133113;27;20258;-74
2022/09/29 08:46:02;;;;;;;5.53;2.55;;;;;;;20.32;61.45;93889.44;5130869;27;20778;-74
2022/09/29 08:48:36;;;;;;;4.70;2.15;;;;;;;20.63;59.96;93892.31;5132726;27;20215;-75
2022/09/29 08:51:07;;;;;;;7.72;2.13;;;;;;;20.30;60.73;93878.03;5132258;27;20383;-74
2022/09/29 08:53:38;;;;;;;5.90;2.55;;;;;;;20.42;60.46;93874.81;5132409;27;20254;-74
2022/09/29 08:56:09;;;;;;;2.88;2.30;;;;;;;20.06;61.67;93881.81;5132567;27;20291;-74
2022/09/29 08:58:38;;;;;;;5.10;2.58;;;;;;;20.06;62.26;93876.31;5118917;27;20250;-74
2022/09/29 09:01:21;;;;;;;3.63;2.03;;;;;;;20.24;61.48;93876.91;5132677;27;20200;-73
2022/09/29 09:04:26;;;;;;;2.95;1.80;;;;;;;20.45;61.22;93873.22;5132781;27;20200;-75
2022/09/29 09:07:06;;;;;;;6.22;2.28;;;;;;;20.36;62.12;93873.72;5131551;27;20226;-74
2022/09/29 09:09:56;;;;;;;4.82;2.33;;;;;;;20.26;62.84;93871.78;5132736;27;20384;-73
2022/09/29 09:12:38;;;;;;;7.03;3.47;;;;;;;20.58;60.88;93872.28;5132626;27;20274;-73
2022/09/29 09:15:46;;;;;;;3.80;2.55;;;;;;;20.51;60.45;93863.31;5132001;27;20767;-72
2022/09/29 09:18:33;;;;;;;9.10;3.38;;;;;;;20.38;60.56;93870.53;5095130;27;20205;-73
2022/09/29 09:21:07;;;;;;;8.55;2.70;;;;;;;20.84;59.99;93867.28;5132085;27;20657;-74
2022/09/29 09:23:48;;;;;;;10.35;2.83;;;;;;;21.02;58.10;93869.81;5132100;27;20291;-74
2022/09/29 09:26:15;;;;;;;7.28;2.45;;;;;;;21.07;58.42;93875.63;5131739;27;20197;-73
2022/09/29 09:28:48;;;;;;;7.10;2.35;;;;;;;21.23;57.83;93878.63;5132560;27;20204;-74
2022/09/29 09:31:21;;;;;;;6.50;2.60;;;;;;;21.34;57.06;93872.19;5132056;27;20201;-74
2022/09/29 09:33:54;;;;;;;3.10;2.03;;;;;;;21.32;58.10;93874.59;5132418;27;20217;-74
2022/09/29 09:36:31;;;;;;;5.45;2.38;;;;;;;21.41;57.60;93866.59;5131897;27;20722;-73
2022/09/29 09:39:02;;;;;;;5.47;2.38;;;;;;;21.21;57.50;93875.50;5132084;27;20204;-75
2022/09/29 09:41:31;;;;;;;5.18;2.58;;;;;;;21.02;58.75;93865.09;5132177;27;20556;-73
2022/09/29 09:44:02;;;;;;;7.53;2.50;;;;;;;20.85;58.51;93858.63;5131279;27;20320;-74
2022/09/29 09:46:34;;;;;;;3.40;2.20;;;;;;;21.05;57.38;93856.00;5132103;27;20224;-74
2022/09/29 09:49:08;;;;;;;3.85;1.92;;;;;;;21.36;55.16;93856.00;5131864;27;20696;-74
2022/09/29 09:51:44;;;;;;;8.27;2.40;;;;;;;21.23;55.25;93862.09;5131581;27;20729;-73
2022/09/29 09:54:14;;;;;;;6.90;2.22;;;;;;;21.69;54.66;93857.91;5132089;27;20200;-74
2022/09/29 09:56:54;;;;;;;1.70;1.60;;;;;;;21.75;49.86;93853.47;5130954;27;20246;-76
2022/09/29 09:59:35;;;;;;;3.45;2.10;;;;;;;21.95;52.39;93862.59;5131875;27;20201;-73
2022/09/29 10:02:02;;;;;;;2.72;1.80;;;;;;;22.09;49.56;93866.34;5131942;27;20219;-73
2022/09/29 10:04:30;;;;;;;6.72;2.00;;;;;;;22.29;49.09;93867.19;5131467;27;20208;-73
2022/09/29 10:07:24;;;;;;;4.32;2.25;;;;;;;22.45;47.15;93867.28;5131278;27;20197;-72
2022/09/29 10:09:52;;;;;;;4.70;2.00;;;;;;;22.48;47.74;93860.16;5130846;27;20197;-74
2022/09/29 10:12:21;;;;;;;2.15;1.90;;;;;;;22.35;48.70;93854.47;5130888;27;20217;-73
2022/09/29 10:14:53;;;;;;;2.15;1.73;;;;;;;22.06;49.54;93856.16;5130884;27;20243;-75
2022/09/29 10:17:24;;;;;;;2.92;1.70;;;;;;;22.04;51.08;93858.53;5131440;27;20208;-76
2022/09/29 10:19:57;;;;;;;3.95;1.50;;;;;;;21.87;50.83;93861.13;5131872;27;20189;-75
2022/09/29 10:22:26;;;;;;;1.65;1.40;;;;;;;21.88;51.24;93862.69;5131880;27;20208;-77
2022/09/29 10:24:55;;;;;;;2.45;1.58;;;;;;;21.97;50.97;93860.22;5130963;27;20212;-74
2022/09/29 10:27:26;;;;;;;9.15;2.50;;;;;;;21.83;50.71;93871.47;5130058;27;20564;-71
2022/09/29 10:29:53;;;;;;;5.60;1.92;;;;;;;21.90;49.40;93865.03;5131355;27;20288;-73
2022/09/29 10:32:35;;;;;;;11.38;1.92;;;;;;;22.04;49.71;93875.09;5130917;27;20327;-72
2022/09/29 10:35:08;;;;;;;4.97;1.95;;;;;;;22.08;49.20;93875.84;5131203;27;20221;-73
2022/09/29 10:37:39;;;;;;;3.10;1.48;;;;;;;22.15;48.52;93876.47;5130984;27;20308;-73
2022/09/29 10:40:17;;;;;;;2.75;1.67;;;;;;;22.27;48.34;93872.38;5130977;27;20200;-73
2022/09/29 10:42:47;;;;;;;2.40;1.75;;;;;;;22.38;47.43;93866.66;5131537;27;20204;-73
2022/09/29 10:45:17;;;;;;;4.07;1.83;;;;;;;22.51;46.20;93865.63;5130749;27;20201;-74
2022/09/29 10:47:46;;;;;;;3.38;1.58;;;;;;;22.61;45.93;93869.38;5131164;27;20197;-73
2022/09/29 10:50:17;;;;;;;4.55;2.40;;;;;;;22.76;47.06;93864.38;5130912;27;20236;-73
2022/09/29 10:52:51;;;;;;;5.18;2.00;;;;;;;23.16;46.21;93860.41;5130464;27;20582;-73
2022/09/29 10:55:21;;;;;;;2.78;2.00;;;;;;;23.38;45.48;93856.00;5131596;27;20215;-73
2022/09/29 10:57:49;;;;;;;2.03;1.67;;;;;;;23.62;43.46;93853.16;5131782;27;20205;-74
2022/09/29 11:00:27;;;;;;;4.20;1.70;;;;;;;24.02;44.50;93843.50;5130372;27;20213;-74
2022/09/29 11:03:03;;;;;;;4.57;2.03;;;;;;;24.10;44.46;93850.41;5130611;27;20296;-73
2022/09/29 11:05:29;;;;;;;4.55;1.80;;;;;;;24.34;44.11;93836.38;5130532;27;20283;-74
2022/09/29 11:07:58;;;;;;;1.33;1.23;;;;;;;24.46;42.77;93832.94;5130201;27;20254;-74
2022/09/29 11:10:29;;;;;;;2.03;1.23;;;;;;;24.80;42.44;93830.41;5130459;27;20265;-73
2022/09/29 11:12:59;;;;;;;2.22;1.55;;;;;;;25.04;42.68;93835.69;5130694;27;20427;-74
2022/09/29 11:15:29;;;;;;;3.55;1.38;;;;;;;25.46;41.85;93831.69;5130294;27;20238;-73
2022/09/29 11:17:56;;;;;;;1.40;1.30;;;;;;;25.49;41.99;93825.25;5129956;28;20204;-73
2022/09/29 11:20:31;;;;;;;2.65;1.30;;;;;;;25.10;41.03;93820.09;5130636;28;20200;-73
2022/09/29 11:23:21;;;;;;;1.73;1.20;;;;;;;25.15;41.75;93833.41;5130782;28;20196;-74
2022/09/29 11:26:11;;;;;;;2.28;1.33;;;;;;;25.52;40.60;93820.03;5130152;28;20237;-73
2022/09/29 11:29:08;;;;;;;3.72;1.50;;;;;;;25.72;39.65;93815.84;5124241;27;20197;-72
2022/09/29 11:31:55;;;;;;;3.50;1.13;;;;;;;25.59;39.73;93808.72;5133888;27;20217;-74
2022/09/29 11:34:45;;;;;;;2.78;1.25;;;;;;;25.76;39.35;93815.75;5134685;27;20288;-74
2022/09/29 11:37:28;;;;;;;2.97;1.60;;;;;;;25.97;39.29;93815.03;5133777;27;20193;-74
2022/09/29 11:40:03;;;;;;;3.10;1.70;;;;;;;26.31;39.81;93813.56;5133977;27;20193;-73
2022/09/29 11:42:49;;;;;;;1.58;1.10;;;;;;;25.97;39.76;93808.75;5134112;27;20224;-74
2022/09/29 11:45:23;;;;;;;3.70;1.50;;;;;;;25.87;39.38;93821.72;5134390;27;20253;-73
2022/09/29 11:48:21;;;;;;;1.48;1.33;;;;;;;25.77;39.04;93818.06;5133631;27;20204;-73
2022/09/29 11:50:58;;;;;;;3.00;1.80;;;;;;;26.01;39.71;93815.72;5121858;27;20236;-74
2022/09/29 11:53:50;;;;;;;1.30;1.17;;;;;;;26.09;38.94;93813.50;5133353;27;20196;-73